sensor_id;sensor_type;location;lat;lon;timestamp;temperature;humidity
17284;DHT22;8760;52.248;20.952;2024-01-11T00:02:14;-5.90;99.90
17284;DHT22;8760;52.248;20.952;2024-01-11T00:04:41;-6.00;99.90
17284;DHT22;8760;52.248;20.952;2024-01-11T00:07:09;-6.00;99.90
17284;DHT22;8760;52.248;20.952;2024-01-11T00:09:39;-6.00;99.90
17284;DHT22;8760;52.248;20.952;2024-01-11T00:12:06;-6.00;99.90
17284;DHT22;8760;52.248;20.952;2024-01-11T00:14:33;-6.00;99.90
17284;DHT22;8760;52.248;20.952;2024-01-11T00:17:00;-6.00;99.90
17284;DHT22;8760;52.248;20.952;2024-01-11T00:19:29;-6.00;99.90
17284;DHT22;8760;52.248;20.952;2024-01-11T00:21:55;-6.00;99.90
17284;DHT22;8760;52.248;20.952;2024-01-11T00:24:22;-6.00;99.90
17284;DHT22;8760;52.248;20.952;2024-01-11T00:26:49;-5.90;99.90
17284;DHT22;8760;52.248;20.952;2024-01-11T00:29:16;-5.90;99.90
17284;DHT22;8760;52.248;20.952;2024-01-11T00:31:43;-5.90;99.90
17284;DHT22;8760;52.248;20.952;2024-01-11T00:34:10;-5.90;99.90
17284;DHT22;8760;52.248;20.952;2024-01-11T00:36:38;-5.90;99.90
17284;DHT22;8760;52.248;20.952;2024-01-11T00:39:05;-5.80;99.90
17284;DHT22;8760;52.248;20.952;2024-01-11T00:41:32;-5.90;99.90
17284;DHT22;8760;52.248;20.952;2024-01-11T00:43:58;-5.80;99.90
17284;DHT22;8760;52.248;20.952;2024-01-11T00:46:25;-5.80;99.90
17284;DHT22;8760;52.248;20.952;2024-01-11T00:48:52;-5.80;99.90
17284;DHT22;8760;52.248;20.952;2024-01-11T00:51:19;-5.80;99.90
17284;DHT22;8760;52.248;20.952;2024-01-11T00:53:47;-5.90;99.90
17284;DHT22;8760;52.248;20.952;2024-01-11T00:56:17;-5.90;99.90
17284;DHT22;8760;52.248;20.952;2024-01-11T00:58:44;-5.80;99.90
17284;DHT22;8760;52.248;20.952;2024-01-11T01:01:11;-5.80;99.90
17284;DHT22;8760;52.248;20.952;2024-01-11T01:03:38;-5.80;99.90
17284;DHT22;8760;52.248;20.952;2024-01-11T01:06:05;-5.70;99.90
17284;DHT22;8760;52.248;20.952;2024-01-11T01:08:32;-5.70;99.90
17284;DHT22;8760;52.248;20.952;2024-01-11T01:11:00;-5.80;99.90
17284;DHT22;8760;52.248;20.952;2024-01-11T01:13:27;-5.80;99.90
17284;DHT22;8760;52.248;20.952;2024-01-11T01:15:54;-5.90;99.90
17284;DHT22;8760;52.248;20.952;2024-01-11T01:18:21;-5.80;99.90
17284;DHT22;8760;52.248;20.952;2024-01-11T01:20:48;-5.70;99.90
17284;DHT22;8760;52.248;20.952;2024-01-11T01:23:15;-5.70;99.90
17284;DHT22;8760;52.248;20.952;2024-01-11T01:25:43;-5.70;99.90
17284;DHT22;8760;52.248;20.952;2024-01-11T01:28:11;-5.60;99.90
17284;DHT22;8760;52.248;20.952;2024-01-11T01:30:38;-5.60;99.90
17284;DHT22;8760;52.248;20.952;2024-01-11T01:33:05;-5.60;99.90
17284;DHT22;8760;52.248;20.952;2024-01-11T01:35:32;-5.60;99.90
17284;DHT22;8760;52.248;20.952;2024-01-11T01:38:00;-5.60;99.90
17284;DHT22;8760;52.248;20.952;2024-01-11T01:40:29;-5.50;99.90
17284;DHT22;8760;52.248;20.952;2024-01-11T01:42:58;-5.50;99.90
17284;DHT22;8760;52.248;20.952;2024-01-11T01:45:26;-5.50;99.90
17284;DHT22;8760;52.248;20.952;2024-01-11T01:47:55;-5.40;99.90
17284;DHT22;8760;52.248;20.952;2024-01-11T01:50:22;-5.40;99.90
17284;DHT22;8760;52.248;20.952;2024-01-11T01:52:49;-5.50;99.90
17284;DHT22;8760;52.248;20.952;2024-01-11T01:55:17;-5.50;99.90
17284;DHT22;8760;52.248;20.952;2024-01-11T01:57:46;-5.50;99.90
17284;DHT22;8760;52.248;20.952;2024-01-11T02:00:13;-5.50;99.90
17284;DHT22;8760;52.248;20.952;2024-01-11T02:02:43;-5.50;99.90
17284;DHT22;8760;52.248;20.952;2024-01-11T02:05:11;-5.50;99.90
17284;DHT22;8760;52.248;20.952;2024-01-11T02:07:38;-5.40;99.90
17284;DHT22;8760;52.248;20.952;2024-01-11T02:10:07;-5.40;99.90
17284;DHT22;8760;52.248;20.952;2024-01-11T02:12:35;-5.50;99.90
17284;DHT22;8760;52.248;20.952;2024-01-11T02:15:03;-5.40;99.90
17284;DHT22;8760;52.248;20.952;2024-01-11T02:17:31;-5.40;99.90
17284;DHT22;8760;52.248;20.952;2024-01-11T02:20:00;-5.30;99.90
17284;DHT22;8760;52.248;20.952;2024-01-11T02:22:32;-5.40;99.90
17284;DHT22;8760;52.248;20.952;2024-01-11T02:25:00;-5.40;99.90
17284;DHT22;8760;52.248;20.952;2024-01-11T02:27:27;-5.30;99.90
17284;DHT22;8760;52.248;20.952;2024-01-11T02:29:54;-5.30;99.90
17284;DHT22;8760;52.248;20.952;2024-01-11T02:32:21;-5.30;99.90
17284;DHT22;8760;52.248;20.952;2024-01-11T02:34:48;-5.30;99.90
17284;DHT22;8760;52.248;20.952;2024-01-11T02:37:16;-5.30;99.90
17284;DHT22;8760;52.248;20.952;2024-01-11T02:39:43;-5.20;99.90
17284;DHT22;8760;52.248;20.952;2024-01-11T02:42:12;-5.20;99.90
17284;DHT22;8760;52.248;20.952;2024-01-11T02:44:39;-5.20;99.90
17284;DHT22;8760;52.248;20.952;2024-01-11T02:47:06;-5.10;99.90
17284;DHT22;8760;52.248;20.952;2024-01-11T02:49:32;-5.20;99.90
17284;DHT22;8760;52.248;20.952;2024-01-11T02:51:59;-5.20;99.90
17284;DHT22;8760;52.248;20.952;2024-01-11T02:54:26;-5.20;99.90
17284;DHT22;8760;52.248;20.952;2024-01-11T02:56:53;-5.30;99.90
17284;DHT22;8760;52.248;20.952;2024-01-11T02:59:21;-5.30;99.90
17284;DHT22;8760;52.248;20.952;2024-01-11T03:01:48;-5.30;99.90
17284;DHT22;8760;52.248;20.952;2024-01-11T03:04:15;-5.20;99.90
17284;DHT22;8760;52.248;20.952;2024-01-11T03:06:43;-5.20;99.90
17284;DHT22;8760;52.248;20.952;2024-01-11T03:09:09;-5.10;99.90
17284;DHT22;8760;52.248;20.952;2024-01-11T03:11:36;-5.10;99.90
17284;DHT22;8760;52.248;20.952;2024-01-11T03:14:04;-5.10;99.90
17284;DHT22;8760;52.248;20.952;2024-01-11T03:16:32;-5.10;99.90
17284;DHT22;8760;52.248;20.952;2024-01-11T03:18:59;-5.10;99.90
17284;DHT22;8760;52.248;20.952;2024-01-11T03:21:26;-5.10;99.90
17284;DHT22;8760;52.248;20.952;2024-01-11T03:23:53;-5.10;99.90
17284;DHT22;8760;52.248;20.952;2024-01-11T03:26:20;-5.10;99.90
17284;DHT22;8760;52.248;20.952;2024-01-11T03:28:47;-5.10;99.90
17284;DHT22;8760;52.248;20.952;2024-01-11T03:31:13;-5.10;99.90
17284;DHT22;8760;52.248;20.952;2024-01-11T03:33:42;-5.10;99.90
17284;DHT22;8760;52.248;20.952;2024-01-11T03:36:09;-5.10;99.90
17284;DHT22;8760;52.248;20.952;2024-01-11T03:38:37;-5.10;99.90
17284;DHT22;8760;52.248;20.952;2024-01-11T03:41:08;-5.10;99.90
17284;DHT22;8760;52.248;20.952;2024-01-11T03:43:35;-5.20;99.90
17284;DHT22;8760;52.248;20.952;2024-01-11T03:46:02;-5.20;99.90
17284;DHT22;8760;52.248;20.952;2024-01-11T03:48:29;-5.20;99.90
17284;DHT22;8760;52.248;20.952;2024-01-11T03:50:58;-5.20;99.90
17284;DHT22;8760;52.248;20.952;2024-01-11T03:53:25;-5.20;99.90
17284;DHT22;8760;52.248;20.952;2024-01-11T03:55:51;-5.20;99.90
17284;DHT22;8760;52.248;20.952;2024-01-11T03:58:18;-5.30;99.90
17284;DHT22;8760;52.248;20.952;2024-01-11T04:00:45;-5.20;99.90
17284;DHT22;8760;52.248;20.952;2024-01-11T04:03:12;-5.20;99.90
17284;DHT22;8760;52.248;20.952;2024-01-11T04:05:39;-5.20;99.90
17284;DHT22;8760;52.248;20.952;2024-01-11T04:08:08;-5.20;99.90
17284;DHT22;8760;52.248;20.952;2024-01-11T04:10:35;-5.10;99.90
17284;DHT22;8760;52.248;20.952;2024-01-11T04:13:02;-5.10;99.90
17284;DHT22;8760;52.248;20.952;2024-01-11T04:15:28;-5.20;99.90
17284;DHT22;8760;52.248;20.952;2024-01-11T04:17:55;-5.30;99.90
17284;DHT22;8760;52.248;20.952;2024-01-11T04:20:22;-5.40;99.90
17284;DHT22;8760;52.248;20.952;2024-01-11T04:22:49;-5.40;99.90
17284;DHT22;8760;52.248;20.952;2024-01-11T04:25:18;-5.40;99.90
17284;DHT22;8760;52.248;20.952;2024-01-11T04:27:46;-5.40;99.90
17284;DHT22;8760;52.248;20.952;2024-01-11T04:30:13;-5.40;99.90
17284;DHT22;8760;52.248;20.952;2024-01-11T04:32:40;-5.30;99.90
17284;DHT22;8760;52.248;20.952;2024-01-11T04:35:07;-5.40;99.90
17284;DHT22;8760;52.248;20.952;2024-01-11T04:37:34;-5.40;99.90
17284;DHT22;8760;52.248;20.952;2024-01-11T04:40:02;-5.40;99.90
17284;DHT22;8760;52.248;20.952;2024-01-11T04:42:30;-5.40;99.90
17284;DHT22;8760;52.248;20.952;2024-01-11T04:44:57;-5.40;99.90
17284;DHT22;8760;52.248;20.952;2024-01-11T04:47:24;-5.30;99.90
17284;DHT22;8760;52.248;20.952;2024-01-11T04:49:51;-5.30;99.90
17284;DHT22;8760;52.248;20.952;2024-01-11T04:52:18;-5.20;99.90
17284;DHT22;8760;52.248;20.952;2024-01-11T04:54:44;-5.20;99.90
17284;DHT22;8760;52.248;20.952;2024-01-11T04:57:11;-5.10;99.90
17284;DHT22;8760;52.248;20.952;2024-01-11T04:59:39;-5.10;99.90
17284;DHT22;8760;52.248;20.952;2024-01-11T05:02:06;-5.20;99.90
17284;DHT22;8760;52.248;20.952;2024-01-11T05:04:34;-5.10;99.90
17284;DHT22;8760;52.248;20.952;2024-01-11T05:07:01;-5.00;99.90
17284;DHT22;8760;52.248;20.952;2024-01-11T05:09:27;-5.00;99.90
17284;DHT22;8760;52.248;20.952;2024-01-11T05:11:55;-5.10;99.90
17284;DHT22;8760;52.248;20.952;2024-01-11T05:14:21;-5.00;99.90
17284;DHT22;8760;52.248;20.952;2024-01-11T05:16:50;-5.00;99.90
17284;DHT22;8760;52.248;20.952;2024-01-11T05:19:17;-5.00;99.90
17284;DHT22;8760;52.248;20.952;2024-01-11T05:21:43;-5.00;99.90
17284;DHT22;8760;52.248;20.952;2024-01-11T05:24:10;-5.10;99.90
17284;DHT22;8760;52.248;20.952;2024-01-11T05:26:37;-5.10;99.90
17284;DHT22;8760;52.248;20.952;2024-01-11T05:29:04;-5.10;99.90
17284;DHT22;8760;52.248;20.952;2024-01-11T05:31:31;-5.10;99.90
17284;DHT22;8760;52.248;20.952;2024-01-11T05:33:59;-5.10;99.90
17284;DHT22;8760;52.248;20.952;2024-01-11T05:36:26;-5.10;99.90
17284;DHT22;8760;52.248;20.952;2024-01-11T05:38:52;-5.10;99.90
17284;DHT22;8760;52.248;20.952;2024-01-11T05:41:19;-5.00;99.90
17284;DHT22;8760;52.248;20.952;2024-01-11T05:43:46;-5.00;99.90
17284;DHT22;8760;52.248;20.952;2024-01-11T05:46:13;-5.00;99.90
17284;DHT22;8760;52.248;20.952;2024-01-11T05:48:40;-5.00;99.90
17284;DHT22;8760;52.248;20.952;2024-01-11T05:51:08;-5.00;99.90
17284;DHT22;8760;52.248;20.952;2024-01-11T05:53:35;-5.00;99.90
17284;DHT22;8760;52.248;20.952;2024-01-11T05:56:02;-5.00;99.90
17284;DHT22;8760;52.248;20.952;2024-01-11T05:58:33;-4.90;99.90
17284;DHT22;8760;52.248;20.952;2024-01-11T06:01:02;-4.80;99.90
17284;DHT22;8760;52.248;20.952;2024-01-11T06:03:28;-4.90;99.90
17284;DHT22;8760;52.248;20.952;2024-01-11T06:05:59;-4.90;99.90
17284;DHT22;8760;52.248;20.952;2024-01-11T06:08:29;-4.80;99.90
17284;DHT22;8760;52.248;20.952;2024-01-11T06:10:55;-4.80;99.90
17284;DHT22;8760;52.248;20.952;2024-01-11T06:13:22;-4.80;99.90
17284;DHT22;8760;52.248;20.952;2024-01-11T06:15:49;-4.90;99.90
17284;DHT22;8760;52.248;20.952;2024-01-11T06:18:16;-4.90;99.90
17284;DHT22;8760;52.248;20.952;2024-01-11T06:20:43;-4.80;99.90
17284;DHT22;8760;52.248;20.952;2024-01-11T06:23:10;-4.80;99.90
17284;DHT22;8760;52.248;20.952;2024-01-11T06:25:38;-4.70;99.90
17284;DHT22;8760;52.248;20.952;2024-01-11T06:28:06;-4.70;99.90
17284;DHT22;8760;52.248;20.952;2024-01-11T06:30:35;-4.70;99.90
17284;DHT22;8760;52.248;20.952;2024-01-11T06:33:03;-4.80;99.90
17284;DHT22;8760;52.248;20.952;2024-01-11T06:35:29;-4.70;99.90
17284;DHT22;8760;52.248;20.952;2024-01-11T06:37:56;-4.70;99.90
17284;DHT22;8760;52.248;20.952;2024-01-11T06:40:23;-4.70;99.90
17284;DHT22;8760;52.248;20.952;2024-01-11T06:42:52;-4.70;99.90
17284;DHT22;8760;52.248;20.952;2024-01-11T06:45:18;-4.60;99.90
17284;DHT22;8760;52.248;20.952;2024-01-11T06:47:45;-4.50;99.90
17284;DHT22;8760;52.248;20.952;2024-01-11T06:50:12;-4.50;99.90
17284;DHT22;8760;52.248;20.952;2024-01-11T06:52:39;-4.50;99.90
17284;DHT22;8760;52.248;20.952;2024-01-11T06:55:07;-4.60;99.90
17284;DHT22;8760;52.248;20.952;2024-01-11T06:57:34;-4.50;99.90
17284;DHT22;8760;52.248;20.952;2024-01-11T07:00:03;-4.50;99.90
17284;DHT22;8760;52.248;20.952;2024-01-11T07:02:30;-4.50;99.90
17284;DHT22;8760;52.248;20.952;2024-01-11T07:04:57;-4.50;99.90
17284;DHT22;8760;52.248;20.952;2024-01-11T07:07:24;-4.40;99.90
17284;DHT22;8760;52.248;20.952;2024-01-11T07:09:52;-4.40;99.90
17284;DHT22;8760;52.248;20.952;2024-01-11T07:12:21;-4.40;99.90
17284;DHT22;8760;52.248;20.952;2024-01-11T07:14:48;-4.30;99.90
17284;DHT22;8760;52.248;20.952;2024-01-11T07:17:16;-4.30;99.90
17284;DHT22;8760;52.248;20.952;2024-01-11T07:19:43;-4.30;99.90
17284;DHT22;8760;52.248;20.952;2024-01-11T07:22:09;-4.30;99.90
17284;DHT22;8760;52.248;20.952;2024-01-11T07:24:37;-4.40;99.90
17284;DHT22;8760;52.248;20.952;2024-01-11T07:27:04;-4.30;99.90
17284;DHT22;8760;52.248;20.952;2024-01-11T07:29:31;-4.30;99.90
17284;DHT22;8760;52.248;20.952;2024-01-11T07:31:58;-4.20;99.90
17284;DHT22;8760;52.248;20.952;2024-01-11T07:34:26;-4.20;99.90
17284;DHT22;8760;52.248;20.952;2024-01-11T07:36:53;-4.10;99.90
17284;DHT22;8760;52.248;20.952;2024-01-11T07:39:20;-4.10;99.90
17284;DHT22;8760;52.248;20.952;2024-01-11T07:41:48;-4.10;99.90
17284;DHT22;8760;52.248;20.952;2024-01-11T07:44:15;-4.10;99.90
17284;DHT22;8760;52.248;20.952;2024-01-11T07:46:42;-4.20;99.90
17284;DHT22;8760;52.248;20.952;2024-01-11T07:49:09;-4.10;99.90
17284;DHT22;8760;52.248;20.952;2024-01-11T07:51:37;-4.10;99.90
17284;DHT22;8760;52.248;20.952;2024-01-11T07:54:04;-4.00;99.90
17284;DHT22;8760;52.248;20.952;2024-01-11T07:56:31;-4.00;99.90
17284;DHT22;8760;52.248;20.952;2024-01-11T07:58:58;-4.00;99.90
17284;DHT22;8760;52.248;20.952;2024-01-11T08:01:25;-4.00;99.90
17284;DHT22;8760;52.248;20.952;2024-01-11T08:03:52;-4.00;99.90
17284;DHT22;8760;52.248;20.952;2024-01-11T08:06:18;-3.90;99.90
17284;DHT22;8760;52.248;20.952;2024-01-11T08:08:47;-3.90;99.90
17284;DHT22;8760;52.248;20.952;2024-01-11T08:11:17;-3.90;99.90
17284;DHT22;8760;52.248;20.952;2024-01-11T08:13:44;-3.90;99.90
17284;DHT22;8760;52.248;20.952;2024-01-11T08:16:15;-3.80;99.90
17284;DHT22;8760;52.248;20.952;2024-01-11T08:18:42;-3.80;99.90
17284;DHT22;8760;52.248;20.952;2024-01-11T08:21:11;-3.80;99.90
17284;DHT22;8760;52.248;20.952;2024-01-11T08:23:39;-3.70;99.90
17284;DHT22;8760;52.248;20.952;2024-01-11T08:26:11;-3.70;99.90
17284;DHT22;8760;52.248;20.952;2024-01-11T08:28:38;-3.60;99.90
17284;DHT22;8760;52.248;20.952;2024-01-11T08:31:05;-3.60;99.90
17284;DHT22;8760;52.248;20.952;2024-01-11T08:33:32;-3.70;99.90
17284;DHT22;8760;52.248;20.952;2024-01-11T08:35:59;-3.60;99.90
17284;DHT22;8760;52.248;20.952;2024-01-11T08:38:29;-3.60;99.90
17284;DHT22;8760;52.248;20.952;2024-01-11T08:40:56;-3.50;99.90
17284;DHT22;8760;52.248;20.952;2024-01-11T08:43:25;-3.40;99.90
17284;DHT22;8760;52.248;20.952;2024-01-11T08:45:52;-3.40;99.90
17284;DHT22;8760;52.248;20.952;2024-01-11T08:48:19;-3.40;99.90
17284;DHT22;8760;52.248;20.952;2024-01-11T08:50:46;-3.40;99.90
17284;DHT22;8760;52.248;20.952;2024-01-11T08:53:13;-3.40;99.90
17284;DHT22;8760;52.248;20.952;2024-01-11T08:55:41;-3.40;99.90
17284;DHT22;8760;52.248;20.952;2024-01-11T08:58:08;-3.30;99.90
17284;DHT22;8760;52.248;20.952;2024-01-11T09:00:37;-3.30;99.90
17284;DHT22;8760;52.248;20.952;2024-01-11T09:03:04;-3.30;99.90
17284;DHT22;8760;52.248;20.952;2024-01-11T09:05:31;-3.20;99.90
17284;DHT22;8760;52.248;20.952;2024-01-11T09:07:58;-3.20;99.90
17284;DHT22;8760;52.248;20.952;2024-01-11T09:10:25;-3.30;99.90
17284;DHT22;8760;52.248;20.952;2024-01-11T09:12:52;-3.30;99.90
17284;DHT22;8760;52.248;20.952;2024-01-11T09:15:19;-3.30;99.90
17284;DHT22;8760;52.248;20.952;2024-01-11T09:17:47;-3.30;99.90
17284;DHT22;8760;52.248;20.952;2024-01-11T09:20:14;-3.30;99.90
17284;DHT22;8760;52.248;20.952;2024-01-11T09:22:41;-3.30;99.90
17284;DHT22;8760;52.248;20.952;2024-01-11T09:25:08;-3.30;99.90
17284;DHT22;8760;52.248;20.952;2024-01-11T09:27:35;-3.20;99.90
17284;DHT22;8760;52.248;20.952;2024-01-11T09:30:02;-3.20;99.90
17284;DHT22;8760;52.248;20.952;2024-01-11T09:32:29;-3.20;99.90
17284;DHT22;8760;52.248;20.952;2024-01-11T09:34:58;-3.10;99.90
17284;DHT22;8760;52.248;20.952;2024-01-11T09:37:24;-3.00;99.90
17284;DHT22;8760;52.248;20.952;2024-01-11T09:39:51;-3.00;99.90
17284;DHT22;8760;52.248;20.952;2024-01-11T09:42:18;-2.80;99.90
17284;DHT22;8760;52.248;20.952;2024-01-11T09:44:46;-2.90;99.90
17284;DHT22;8760;52.248;20.952;2024-01-11T09:47:15;-2.80;99.90
17284;DHT22;8760;52.248;20.952;2024-01-11T09:49:44;-2.80;99.90
17284;DHT22;8760;52.248;20.952;2024-01-11T09:52:13;-2.70;99.90
17284;DHT22;8760;52.248;20.952;2024-01-11T09:54:42;-2.70;99.90
17284;DHT22;8760;52.248;20.952;2024-01-11T09:57:09;-2.60;99.90
17284;DHT22;8760;52.248;20.952;2024-01-11T09:59:37;-2.70;99.90
17284;DHT22;8760;52.248;20.952;2024-01-11T10:02:04;-2.70;99.90
17284;DHT22;8760;52.248;20.952;2024-01-11T10:04:33;-2.60;99.90
17284;DHT22;8760;52.248;20.952;2024-01-11T10:07:02;-2.70;99.90
17284;DHT22;8760;52.248;20.952;2024-01-11T10:09:32;-2.70;99.90
17284;DHT22;8760;52.248;20.952;2024-01-11T10:11:59;-2.60;99.90
17284;DHT22;8760;52.248;20.952;2024-01-11T10:14:26;-2.60;99.90
17284;DHT22;8760;52.248;20.952;2024-01-11T10:16:54;-2.60;99.90
17284;DHT22;8760;52.248;20.952;2024-01-11T10:19:21;-2.60;99.90
17284;DHT22;8760;52.248;20.952;2024-01-11T10:21:47;-2.60;99.90
17284;DHT22;8760;52.248;20.952;2024-01-11T10:24:18;-2.50;99.90
17284;DHT22;8760;52.248;20.952;2024-01-11T10:26:47;-2.50;99.90
17284;DHT22;8760;52.248;20.952;2024-01-11T10:29:14;-2.40;99.90
17284;DHT22;8760;52.248;20.952;2024-01-11T10:31:41;-2.30;99.90
17284;DHT22;8760;52.248;20.952;2024-01-11T10:34:07;-2.30;99.90
17284;DHT22;8760;52.248;20.952;2024-01-11T10:36:34;-2.30;99.90
17284;DHT22;8760;52.248;20.952;2024-01-11T10:39:03;-2.40;99.90
17284;DHT22;8760;52.248;20.952;2024-01-11T10:41:38;-2.30;99.90
17284;DHT22;8760;52.248;20.952;2024-01-11T10:44:14;-2.30;99.90
17284;DHT22;8760;52.248;20.952;2024-01-11T10:46:45;-2.20;99.90
17284;DHT22;8760;52.248;20.952;2024-01-11T10:49:17;-2.20;99.90
17284;DHT22;8760;52.248;20.952;2024-01-11T10:51:47;-2.10;99.90
17284;DHT22;8760;52.248;20.952;2024-01-11T10:54:15;-2.10;99.90
17284;DHT22;8760;52.248;20.952;2024-01-11T10:56:43;-2.10;99.90
17284;DHT22;8760;52.248;20.952;2024-01-11T10:59:11;-2.10;99.90
17284;DHT22;8760;52.248;20.952;2024-01-11T11:01:39;-2.10;99.90
17284;DHT22;8760;52.248;20.952;2024-01-11T11:04:07;-2.10;99.90
17284;DHT22;8760;52.248;20.952;2024-01-11T11:06:35;-2.00;99.90
17284;DHT22;8760;52.248;20.952;2024-01-11T11:09:04;-2.00;99.90
17284;DHT22;8760;52.248;20.952;2024-01-11T11:11:33;-2.00;99.90
17284;DHT22;8760;52.248;20.952;2024-01-11T11:14:01;-2.00;99.90
17284;DHT22;8760;52.248;20.952;2024-01-11T11:16:30;-2.00;99.90
17284;DHT22;8760;52.248;20.952;2024-01-11T11:18:57;-2.10;99.90
17284;DHT22;8760;52.248;20.952;2024-01-11T11:21:24;-2.10;99.90
17284;DHT22;8760;52.248;20.952;2024-01-11T11:23:50;-2.00;99.90
17284;DHT22;8760;52.248;20.952;2024-01-11T11:26:17;-2.10;99.90
17284;DHT22;8760;52.248;20.952;2024-01-11T11:28:44;-2.10;99.90
17284;DHT22;8760;52.248;20.952;2024-01-11T11:31:12;-2.10;99.90
17284;DHT22;8760;52.248;20.952;2024-01-11T11:33:40;-2.10;99.90
17284;DHT22;8760;52.248;20.952;2024-01-11T11:36:12;-2.10;99.90
17284;DHT22;8760;52.248;20.952;2024-01-11T11:38:39;-2.10;99.90
17284;DHT22;8760;52.248;20.952;2024-01-11T11:41:07;-2.10;99.90
17284;DHT22;8760;52.248;20.952;2024-01-11T11:43:34;-2.10;99.90
17284;DHT22;8760;52.248;20.952;2024-01-11T11:46:02;-2.10;99.90
17284;DHT22;8760;52.248;20.952;2024-01-11T11:48:52;-2.00;99.90
17284;DHT22;8760;52.248;20.952;2024-01-11T11:51:21;-2.00;99.90
17284;DHT22;8760;52.248;20.952;2024-01-11T11:53:49;-2.00;99.90
17284;DHT22;8760;52.248;20.952;2024-01-11T11:56:17;-2.00;99.90
17284;DHT22;8760;52.248;20.952;2024-01-11T11:58:46;-2.00;99.90
17284;DHT22;8760;52.248;20.952;2024-01-11T12:01:14;-2.00;99.90
17284;DHT22;8760;52.248;20.952;2024-01-11T12:03:43;-2.00;99.90
17284;DHT22;8760;52.248;20.952;2024-01-11T12:06:16;-2.00;99.90
17284;DHT22;8760;52.248;20.952;2024-01-11T12:08:44;-2.00;99.90
17284;DHT22;8760;52.248;20.952;2024-01-11T12:11:17;-2.00;99.90
17284;DHT22;8760;52.248;20.952;2024-01-11T12:13:44;-2.00;99.90
17284;DHT22;8760;52.248;20.952;2024-01-11T12:16:11;-2.00;99.90
17284;DHT22;8760;52.248;20.952;2024-01-11T12:18:38;-2.00;99.90
17284;DHT22;8760;52.248;20.952;2024-01-11T12:21:05;-1.90;99.90
17284;DHT22;8760;52.248;20.952;2024-01-11T12:23:34;-1.80;99.90
17284;DHT22;8760;52.248;20.952;2024-01-11T12:26:02;-1.80;99.90
17284;DHT22;8760;52.248;20.952;2024-01-11T12:28:31;-1.70;99.90
17284;DHT22;8760;52.248;20.952;2024-01-11T12:30:59;-1.70;99.90
17284;DHT22;8760;52.248;20.952;2024-01-11T12:33:26;-1.60;99.90
17284;DHT22;8760;52.248;20.952;2024-01-11T12:35:53;-1.60;99.90
17284;DHT22;8760;52.248;20.952;2024-01-11T12:38:20;-1.60;99.90
17284;DHT22;8760;52.248;20.952;2024-01-11T12:40:49;-1.60;99.90
17284;DHT22;8760;52.248;20.952;2024-01-11T12:43:16;-1.50;99.90
17284;DHT22;8760;52.248;20.952;2024-01-11T12:45:43;-1.40;99.90
17284;DHT22;8760;52.248;20.952;2024-01-11T12:48:10;-1.40;99.90
17284;DHT22;8760;52.248;20.952;2024-01-11T12:50:40;-1.40;99.90
17284;DHT22;8760;52.248;20.952;2024-01-11T12:53:08;-1.30;99.90
17284;DHT22;8760;52.248;20.952;2024-01-11T12:55:37;-1.30;99.90
17284;DHT22;8760;52.248;20.952;2024-01-11T12:58:07;-1.30;99.90
17284;DHT22;8760;52.248;20.952;2024-01-11T13:00:35;-1.30;99.90
17284;DHT22;8760;52.248;20.952;2024-01-11T13:03:03;-1.30;99.90
17284;DHT22;8760;52.248;20.952;2024-01-11T13:05:30;-1.30;99.90
17284;DHT22;8760;52.248;20.952;2024-01-11T13:08:00;-1.30;99.90
17284;DHT22;8760;52.248;20.952;2024-01-11T13:10:28;-1.30;99.90
17284;DHT22;8760;52.248;20.952;2024-01-11T13:12:57;-1.30;99.90
17284;DHT22;8760;52.248;20.952;2024-01-11T13:15:25;-1.30;99.90
17284;DHT22;8760;52.248;20.952;2024-01-11T13:17:52;-1.30;99.90
17284;DHT22;8760;52.248;20.952;2024-01-11T13:20:19;-1.30;99.90
17284;DHT22;8760;52.248;20.952;2024-01-11T13:22:47;-1.20;99.90
17284;DHT22;8760;52.248;20.952;2024-01-11T13:25:14;-1.20;99.90
17284;DHT22;8760;52.248;20.952;2024-01-11T13:27:40;-1.30;99.90
17284;DHT22;8760;52.248;20.952;2024-01-11T13:30:07;-1.20;99.90
17284;DHT22;8760;52.248;20.952;2024-01-11T13:32:36;-1.10;99.90
17284;DHT22;8760;52.248;20.952;2024-01-11T13:35:03;-1.10;99.90
17284;DHT22;8760;52.248;20.952;2024-01-11T13:37:31;-1.10;99.90
17284;DHT22;8760;52.248;20.952;2024-01-11T13:39:58;-1.10;99.90
17284;DHT22;8760;52.248;20.952;2024-01-11T13:42:24;-1.10;99.90
17284;DHT22;8760;52.248;20.952;2024-01-11T13:44:51;-1.10;99.90
17284;DHT22;8760;52.248;20.952;2024-01-11T13:47:18;-1.00;99.90
17284;DHT22;8760;52.248;20.952;2024-01-11T13:49:47;-1.00;99.90
17284;DHT22;8760;52.248;20.952;2024-01-11T13:52:14;-0.90;99.90
17284;DHT22;8760;52.248;20.952;2024-01-11T13:54:40;-0.80;99.90
17284;DHT22;8760;52.248;20.952;2024-01-11T13:57:07;-0.80;99.90
17284;DHT22;8760;52.248;20.952;2024-01-11T13:59:34;-0.80;99.90
17284;DHT22;8760;52.248;20.952;2024-01-11T14:02:01;-0.80;99.90
17284;DHT22;8760;52.248;20.952;2024-01-11T14:04:29;-0.80;99.90
17284;DHT22;8760;52.248;20.952;2024-01-11T14:06:57;-0.80;99.90
17284;DHT22;8760;52.248;20.952;2024-01-11T14:09:24;-0.90;99.90
17284;DHT22;8760;52.248;20.952;2024-01-11T14:11:51;-0.80;99.90
17284;DHT22;8760;52.248;20.952;2024-01-11T14:14:18;-0.80;99.90
17284;DHT22;8760;52.248;20.952;2024-01-11T14:16:46;-0.80;99.90
17284;DHT22;8760;52.248;20.952;2024-01-11T14:19:13;-0.80;99.90
17284;DHT22;8760;52.248;20.952;2024-01-11T14:21:40;-0.80;99.90
17284;DHT22;8760;52.248;20.952;2024-01-11T14:24:09;-0.80;99.90
17284;DHT22;8760;52.248;20.952;2024-01-11T14:26:35;-0.80;99.90
17284;DHT22;8760;52.248;20.952;2024-01-11T14:29:03;-0.70;99.90
17284;DHT22;8760;52.248;20.952;2024-01-11T14:31:30;-0.70;99.90
17284;DHT22;8760;52.248;20.952;2024-01-11T14:33:57;-0.70;99.90
17284;DHT22;8760;52.248;20.952;2024-01-11T14:36:24;-0.60;99.90
17284;DHT22;8760;52.248;20.952;2024-01-11T14:38:51;-0.60;99.90
17284;DHT22;8760;52.248;20.952;2024-01-11T14:41:19;-0.60;99.90
17284;DHT22;8760;52.248;20.952;2024-01-11T14:43:46;-0.60;99.90
17284;DHT22;8760;52.248;20.952;2024-01-11T14:46:13;-0.50;99.90
17284;DHT22;8760;52.248;20.952;2024-01-11T14:48:40;-0.50;99.90
17284;DHT22;8760;52.248;20.952;2024-01-11T14:51:07;-0.50;99.90
17284;DHT22;8760;52.248;20.952;2024-01-11T14:53:34;-0.50;99.90
17284;DHT22;8760;52.248;20.952;2024-01-11T14:56:01;-0.40;99.90
17284;DHT22;8760;52.248;20.952;2024-01-11T14:58:30;-0.30;99.90
17284;DHT22;8760;52.248;20.952;2024-01-11T15:00:57;-0.30;99.90
17284;DHT22;8760;52.248;20.952;2024-01-11T15:03:24;-0.20;99.90
17284;DHT22;8760;52.248;20.952;2024-01-11T15:05:52;-0.10;99.90
17284;DHT22;8760;52.248;20.952;2024-01-11T15:08:19;-0.10;99.90
17284;DHT22;8760;52.248;20.952;2024-01-11T15:10:46;-0.10;99.90
17284;DHT22;8760;52.248;20.952;2024-01-11T15:13:13;0.00;99.90
17284;DHT22;8760;52.248;20.952;2024-01-11T15:15:42;0.00;99.90
17284;DHT22;8760;52.248;20.952;2024-01-11T15:18:09;0.10;99.90
17284;DHT22;8760;52.248;20.952;2024-01-11T15:20:36;0.20;99.90
17284;DHT22;8760;52.248;20.952;2024-01-11T15:23:03;0.20;99.90
17284;DHT22;8760;52.248;20.952;2024-01-11T15:25:30;0.20;99.90
17284;DHT22;8760;52.248;20.952;2024-01-11T15:27:57;0.30;99.90
17284;DHT22;8760;52.248;20.952;2024-01-11T15:30:24;0.40;99.90
17284;DHT22;8760;52.248;20.952;2024-01-11T15:32:53;0.30;99.90
17284;DHT22;8760;52.248;20.952;2024-01-11T15:35:19;0.50;99.90